Language: 


Des rapports , des résumés tant et plus, au choix de chacun....


Données statistiques de la station
Quotidien Rapport Mars 29, 2017 Unités:  Métrique    Anglais   les deux
« Précédent Jour
Suivant Jour »
Quotidien Hebdomadaire Mensuel Annuel Actuel
  Haut: Bas: Moyen:
Température: 18.1 °C 8.2 °C 12.9 °C
Pt de rosée: 12.4 °C 6.2 °C 8.2 °C
Humidité: 92 % 50 % 75 %
Vitesse du vent: 28.8 km/h 0.0 km/h 8.5 km/h
Rafales: 30.9 km/h - -
Vent:- - WSW
Pression: 1024.9 hPa 1021.9 hPa -
Précipitation: 0.0 mm    
Historical Graphs
 
 
Données statistiques pour Mars 29, 2017
Heure Température Point de rosée Pression Vent Vitesse du vent Refales Humidité Pluie (taux horaire)
00:01 10.4 °C 7.4 °C 1021.9 hPa Calm   4.0 km/h 82 % 0.0 mm
00:06 10.2 °C 7.4 °C 1021.9 hPa West 4.0 km/h 5.0 km/h 83 % 0.0 mm
00:11 10.0 °C 7.2 °C 1022.9 hPa Calm   5.0 km/h 83 % 0.0 mm
00:16 9.9 °C 7.2 °C 1022.9 hPa Calm   4.7 km/h 83 % 0.0 mm
00:21 9.5 °C 6.8 °C 1022.9 hPa Calm     83 % 0.0 mm
00:26 9.3 °C 6.6 °C 1022.9 hPa Calm     83 % 0.0 mm
00:27 9.3 °C 6.6 °C 1022.9 hPa Calm     83 % 0.0 mm
00:32 9.0 °C 6.3 °C 1022.9 hPa Calm     83 % 0.0 mm
00:37 8.8 °C 6.3 °C 1022.9 hPa Calm   3.2 km/h 84 % 0.0 mm
00:42 8.7 °C 6.3 °C 1022.9 hPa Calm   3.5 km/h 85 % 0.0 mm
00:47 8.6 °C 6.2 °C 1022.9 hPa Calm   3.5 km/h 85 % 0.0 mm
00:52 8.5 °C 6.2 °C 1022.9 hPa Calm     85 % 0.0 mm
00:58 8.4 °C 6.2 °C 1022.9 hPa Calm     86 % 0.0 mm
01:03 8.4 °C 6.2 °C 1022.9 hPa Calm     86 % 0.0 mm
01:08 8.3 °C 6.3 °C 1022.9 hPa Calm     87 % 0.0 mm
01:13 8.3 °C 6.3 °C 1022.9 hPa Calm     87 % 0.0 mm
01:18 8.3 °C 6.3 °C 1022.9 hPa Calm     87 % 0.0 mm
01:23 8.2 °C 6.4 °C 1022.9 hPa Calm     88 % 0.0 mm
01:28 8.3 °C 6.4 °C 1022.9 hPa Calm   4.3 km/h 88 % 0.0 mm
01:33 8.3 °C 6.6 °C 1022.9 hPa Calm   4.3 km/h 89 % 0.0 mm
01:38 8.5 °C 6.8 °C 1022.9 hPa Calm   5.8 km/h 89 % 0.0 mm
01:43 8.6 °C 7.1 °C 1022.9 hPa SW 4.0 km/h 5.8 km/h 90 % 0.0 mm
01:48 8.8 °C 7.3 °C 1022.9 hPa Calm   5.0 km/h 90 % 0.0 mm
01:53 9.1 °C 7.7 °C 1022.9 hPa SSW 5.5 km/h 6.9 km/h 91 % 0.0 mm
01:58 9.3 °C 7.9 °C 1022.9 hPa SW 6.9 km/h 8.7 km/h 91 % 0.0 mm
02:03 9.5 °C 8.1 °C 1022.9 hPa SSW 1.4 km/h 8.7 km/h 91 % 0.0 mm
02:08 9.7 °C 8.4 °C 1022.9 hPa Calm   6.9 km/h 92 % 0.0 mm
02:13 9.8 °C 8.4 °C 1022.9 hPa Calm   5.0 km/h 91 % 0.0 mm
02:18 9.9 °C 8.5 °C 1022.9 hPa SSW 2.1 km/h 8.7 km/h 91 % 0.0 mm
02:23 9.9 °C 8.5 °C 1022.9 hPa South 5.8 km/h 8.7 km/h 91 % 0.0 mm
02:28 9.8 °C 8.2 °C 1022.9 hPa Calm   6.4 km/h 90 % 0.0 mm
02:33 9.7 °C 8.2 °C 1022.9 hPa Calm   6.4 km/h 90 % 0.0 mm
02:38 9.6 °C 8.1 °C 1022.9 hPa Calm   5.5 km/h 90 % 0.0 mm
02:43 9.5 °C 7.9 °C 1022.9 hPa Calm     90 % 0.0 mm
02:48 9.4 °C 7.8 °C 1022.9 hPa Calm     90 % 0.0 mm
02:53 9.4 °C 7.8 °C 1022.9 hPa SSW 2.1 km/h 3.2 km/h 90 % 0.0 mm
02:58 9.3 °C 7.6 °C 1022.9 hPa Calm   3.2 km/h 89 % 0.0 mm
03:03 9.2 °C 7.7 °C 1022.9 hPa Calm   2.1 km/h 90 % 0.0 mm
03:08 9.3 °C 7.8 °C 1022.9 hPa Calm   3.2 km/h 90 % 0.0 mm
03:13 9.4 °C 7.8 °C 1022.9 hPa South 3.2 km/h 6.1 km/h 90 % 0.0 mm
03:18 9.5 °C 8.1 °C 1022.9 hPa SSW 5.8 km/h 7.9 km/h 91 % 0.0 mm
03:23 9.7 °C 8.3 °C 1022.9 hPa SSW 6.9 km/h 8.7 km/h 91 % 0.0 mm
03:29 9.8 °C 8.4 °C 1022.9 hPa WSW 6.4 km/h 8.7 km/h 91 % 0.0 mm
03:34 9.9 °C 8.5 °C 1022.9 hPa SW 5.8 km/h 9.0 km/h 91 % 0.0 mm
03:39 10.1 °C 8.7 °C 1022.9 hPa SSW 5.0 km/h 14.0 km/h 91 % 0.0 mm
03:44 10.2 °C 8.8 °C 1022.9 hPa SW 11.9 km/h 14.0 km/h 91 % 0.0 mm
03:49 10.2 °C 8.8 °C 1022.9 hPa SW 9.3 km/h 11.9 km/h 91 % 0.0 mm
03:54 10.2 °C 8.6 °C 1022.9 hPa SW 6.9 km/h 12.2 km/h 90 % 0.0 mm
03:59 10.2 °C 8.6 °C 1022.9 hPa SSW 6.4 km/h 12.2 km/h 90 % 0.0 mm
04:04 10.2 °C 8.4 °C 1022.9 hPa WSW 6.1 km/h 10.5 km/h 89 % 0.0 mm
04:09 10.1 °C 8.4 °C 1022.9 hPa SW 5.0 km/h 10.5 km/h 89 % 0.0 mm
04:14 10.1 °C 8.2 °C 1022.9 hPa SW 9.0 km/h 10.5 km/h 88 % 0.0 mm
04:19 10.0 °C 8.1 °C 1022.9 hPa Calm   9.3 km/h 88 % 0.0 mm
04:24 9.9 °C 8.0 °C 1021.9 hPa SSW 7.6 km/h 10.1 km/h 88 % 0.0 mm
04:29 9.9 °C 8.0 °C 1021.9 hPa WSW 5.8 km/h 10.1 km/h 88 % 0.0 mm
04:34 9.8 °C 7.9 °C 1021.9 hPa SSW 9.3 km/h 9.3 km/h 88 % 0.0 mm
04:39 9.9 °C 8.0 °C 1021.9 hPa SSW 9.7 km/h 12.2 km/h 88 % 0.0 mm
04:44 10.0 °C 8.1 °C 1021.9 hPa SW 11.9 km/h 13.7 km/h 88 % 0.0 mm
04:49 10.1 °C 8.2 °C 1021.9 hPa WSW 12.2 km/h 13.7 km/h 88 % 0.0 mm
04:54 10.1 °C 8.2 °C 1022.9 hPa SSW 10.8 km/h 13.7 km/h 88 % 0.0 mm
04:59 10.1 °C 8.2 °C 1022.9 hPa SSW 9.3 km/h 13.7 km/h 88 % 0.0 mm
05:04 10.1 °C 8.2 °C 1022.9 hPa SW 11.9 km/h 13.7 km/h 88 % 0.0 mm
05:09 10.1 °C 8.0 °C 1022.9 hPa SW 12.6 km/h 14.0 km/h 87 % 0.0 mm
05:14 10.1 °C 8.0 °C 1022.9 hPa SSW 9.0 km/h 14.3 km/h 87 % 0.0 mm
05:19 10.1 °C 7.8 °C 1022.9 hPa SSW 7.9 km/h 14.3 km/h 86 % 0.0 mm
05:24 10.0 °C 7.8 °C 1021.9 hPa SW 7.6 km/h 14.8 km/h 86 % 0.0 mm
05:29 9.9 °C 7.7 °C 1021.9 hPa SW 6.9 km/h 14.8 km/h 86 % 0.0 mm
05:34 9.8 °C 7.6 °C 1021.9 hPa SW 7.9 km/h 13.7 km/h 86 % 0.0 mm
05:39 9.8 °C 7.6 °C 1021.9 hPa SSW 9.7 km/h 13.7 km/h 86 % 0.0 mm
05:44 9.7 °C 7.4 °C 1021.9 hPa SSW 7.9 km/h 12.6 km/h 86 % 0.0 mm
05:49 9.6 °C 7.4 °C 1021.9 hPa SW 6.9 km/h 12.6 km/h 86 % 0.0 mm
05:54 9.5 °C 7.4 °C 1021.9 hPa SSW 9.0 km/h 10.5 km/h 87 % 0.0 mm
05:59 9.5 °C 7.4 °C 1021.9 hPa SSW 9.7 km/h 12.6 km/h 87 % 0.0 mm
06:05 9.5 °C 7.4 °C 1021.9 hPa WSW 9.0 km/h 12.6 km/h 87 % 0.0 mm
06:10 9.5 °C 7.6 °C 1022.9 hPa SSW 7.9 km/h 11.9 km/h 88 % 0.0 mm
06:15 9.5 °C 7.6 °C 1022.9 hPa SW 9.7 km/h 11.1 km/h 88 % 0.0 mm
06:20 9.5 °C 7.6 °C 1022.9 hPa SW 7.6 km/h 10.1 km/h 88 % 0.0 mm
06:25 9.4 °C 7.5 °C 1022.9 hPa SSW 9.7 km/h 10.1 km/h 88 % 0.0 mm
06:30 9.4 °C 7.5 °C 1022.9 hPa South 6.4 km/h 10.1 km/h 88 % 0.0 mm
06:35 9.3 °C 7.4 °C 1022.9 hPa Calm   9.3 km/h 88 % 0.0 mm
06:40 9.1 °C 7.1 °C 1022.9 hPa South 5.8 km/h 6.9 km/h 87 % 0.0 mm
06:45 9.1 °C 7.1 °C 1022.9 hPa SSW 4.3 km/h 8.7 km/h 87 % 0.0 mm
06:50 9.0 °C 6.9 °C 1022.9 hPa South 5.0 km/h 8.7 km/h 87 % 0.0 mm
06:55 9.0 °C 7.1 °C 1021.9 hPa SSW 7.6 km/h 9.0 km/h 88 % 0.0 mm
07:00 9.1 °C 7.2 °C 1021.9 hPa SSW 6.1 km/h 12.2 km/h 88 % 0.0 mm
07:05 9.1 °C 7.4 °C 1021.9 hPa Calm   12.2 km/h 89 % 0.0 mm
07:10 9.2 °C 7.5 °C 1021.9 hPa SW 6.9 km/h 14.8 km/h 89 % 0.0 mm
07:15 9.3 °C 7.8 °C 1021.9 hPa SSW 6.4 km/h 14.8 km/h 90 % 0.0 mm
07:16 9.3 °C 7.8 °C 1021.9 hPa SSW 6.1 km/h 14.8 km/h 90 % 0.0 mm
07:21 9.5 °C 7.9 °C 1021.9 hPa SW 6.4 km/h 12.2 km/h 90 % 0.0 mm
07:26 9.6 °C 7.9 °C 1022.9 hPa SW 6.4 km/h 12.2 km/h 89 % 0.0 mm
07:31 9.7 °C 8.0 °C 1022.9 hPa SW 6.4 km/h 12.2 km/h 89 % 0.0 mm
07:36 9.8 °C 7.9 °C 1022.9 hPa SW 9.3 km/h 13.0 km/h 88 % 0.0 mm
07:41 9.9 °C 8.0 °C 1022.9 hPa SW 10.5 km/h 13.7 km/h 88 % 0.0 mm
07:46 9.9 °C 7.8 °C 1022.9 hPa SW 11.6 km/h 13.7 km/h 87 % 0.0 mm
07:51 10.0 °C 7.9 °C 1022.9 hPa SW 9.7 km/h 13.7 km/h 87 % 0.0 mm
07:56 10.1 °C 7.8 °C 1023.9 hPa WSW 9.7 km/h 12.6 km/h 86 % 0.0 mm
08:01 10.2 °C 7.9 °C 1023.9 hPa SW 10.8 km/h 13.7 km/h 86 % 0.0 mm
08:06 10.3 °C 8.1 °C 1023.9 hPa SW 14.0 km/h 14.0 km/h 86 % 0.0 mm
08:11 10.4 °C 8.2 °C 1021.9 hPa WSW 14.0 km/h 14.0 km/h 86 % 0.0 mm
08:16 10.6 °C 8.2 °C 1021.9 hPa WSW 12.6 km/h 16.6 km/h 85 % 0.0 mm
08:21 10.7 °C 8.3 °C 1021.9 hPa WSW 12.6 km/h 16.6 km/h 85 % 0.0 mm
08:26 10.8 °C 8.2 °C 1022.9 hPa WSW 12.6 km/h 16.6 km/h 84 % 0.0 mm
08:31 10.9 °C 8.3 °C 1022.9 hPa SW 12.2 km/h 16.6 km/h 84 % 0.0 mm
08:36 11.0 °C 8.4 °C 1022.9 hPa WSW 10.1 km/h 16.3 km/h 84 % 0.0 mm
08:41 11.0 °C 8.4 °C 1022.9 hPa WSW 9.0 km/h 17.7 km/h 84 % 0.0 mm
08:46 11.0 °C 8.2 °C 1022.9 hPa West 10.5 km/h 17.7 km/h 83 % 0.0 mm
08:51 11.1 °C 8.4 °C 1022.9 hPa West 11.9 km/h 15.8 km/h 84 % 0.0 mm
08:56 11.1 °C 8.7 °C 1023.9 hPa WSW 12.2 km/h 19.1 km/h 85 % 0.0 mm
09:01 11.2 °C 8.7 °C 1023.9 hPa WSW 9.0 km/h 19.1 km/h 85 % 0.0 mm
09:06 11.2 °C 8.7 °C 1023.9 hPa WSW 9.7 km/h 16.9 km/h 85 % 0.0 mm
09:11 11.2 °C 8.9 °C 1022.9 hPa WSW 10.1 km/h 15.8 km/h 86 % 0.0 mm
09:16 11.3 °C 9.0 °C 1022.9 hPa WSW 11.6 km/h 15.8 km/h 86 % 0.0 mm
09:21 11.4 °C 9.4 °C 1022.9 hPa SW 10.1 km/h 14.0 km/h 87 % 0.0 mm
09:26 11.6 °C 9.5 °C 1023.9 hPa WSW 10.8 km/h 14.0 km/h 87 % 0.0 mm
09:31 11.7 °C 9.6 °C 1023.9 hPa WSW 8.7 km/h 14.0 km/h 87 % 0.0 mm
09:36 11.8 °C 9.5 °C 1023.9 hPa SW 10.5 km/h 14.0 km/h 86 % 0.0 mm
09:41 11.8 °C 9.6 °C 1023.9 hPa WSW 10.1 km/h 13.7 km/h 86 % 0.0 mm
09:46 11.9 °C 9.7 °C 1023.9 hPa SW 11.1 km/h 15.8 km/h 86 % 0.0 mm
09:51 12.1 °C 9.8 °C 1023.9 hPa WSW 10.5 km/h 15.8 km/h 86 % 0.0 mm
09:56 12.1 °C 9.6 °C 1023.9 hPa WSW 10.1 km/h 14.3 km/h 85 % 0.0 mm
10:01 12.2 °C 9.8 °C 1023.9 hPa SW 9.7 km/h 14.3 km/h 85 % 0.0 mm
10:06 12.2 °C 9.8 °C 1023.9 hPa WSW 8.7 km/h 13.0 km/h 85 % 0.0 mm
10:11 12.3 °C 9.7 °C 1023.9 hPa SSW 2.6 km/h 12.2 km/h 84 % 0.0 mm
10:16 12.4 °C 9.6 °C 1023.9 hPa SW 13.0 km/h 13.7 km/h 83 % 0.0 mm
10:21 12.4 °C 9.6 °C 1023.9 hPa SW 14.0 km/h 15.8 km/h 83 % 0.0 mm
10:26 12.4 °C 9.4 °C 1023.9 hPa SSW 13.7 km/h 15.8 km/h 82 % 0.0 mm
10:31 12.6 °C 9.6 °C 1023.9 hPa SW 9.7 km/h 15.8 km/h 82 % 0.0 mm
10:36 12.6 °C 9.4 °C 1023.9 hPa SSW 12.2 km/h 14.8 km/h 81 % 0.0 mm
10:41 12.7 °C 9.4 °C 1024.9 hPa SSW 11.9 km/h 14.8 km/h 81 % 0.0 mm
10:46 12.7 °C 9.4 °C 1024.9 hPa SW 9.3 km/h 16.9 km/h 81 % 0.0 mm
10:51 12.7 °C 9.4 °C 1024.9 hPa SW 9.0 km/h 16.9 km/h 81 % 0.0 mm
10:56 12.6 °C 9.2 °C 1024.9 hPa SSW 11.6 km/h 14.8 km/h 80 % 0.0 mm
11:02 12.6 °C 9.2 °C 1024.9 hPa SSW 9.7 km/h 14.8 km/h 80 % 0.0 mm
11:07 12.7 °C 9.3 °C 1024.9 hPa SSW 12.2 km/h 14.0 km/h 80 % 0.0 mm
11:12 12.7 °C 9.4 °C 1024.9 hPa WSW 11.6 km/h 13.7 km/h 81 % 0.0 mm
11:17 12.7 °C 9.4 °C 1024.9 hPa SSW 9.0 km/h 13.7 km/h 81 % 0.0 mm
11:22 12.7 °C 9.4 °C 1024.9 hPa WSW 10.1 km/h 14.0 km/h 81 % 0.0 mm
11:27 12.7 °C 9.6 °C 1024.9 hPa SW 9.7 km/h 14.3 km/h 81 % 0.0 mm
11:32 12.7 °C 9.4 °C 1024.9 hPa WSW 12.2 km/h 16.6 km/h 80 % 0.0 mm
11:37 12.8 °C 9.7 °C 1024.9 hPa SW 12.6 km/h 16.6 km/h 81 % 0.0 mm
11:42 12.8 °C 9.7 °C 1024.9 hPa SSW 12.6 km/h 20.6 km/h 81 % 0.0 mm
11:47 12.9 °C 9.8 °C 1024.9 hPa WSW 12.6 km/h 20.6 km/h 81 % 0.0 mm
11:52 12.9 °C 9.9 °C 1024.9 hPa West 28.8 km/h 28.8 km/h 82 % 0.0 mm
11:57 12.9 °C 9.9 °C 1024.9 hPa West 17.2 km/h 28.8 km/h 82 % 0.0 mm
12:02 13.1 °C 10.1 °C 1024.9 hPa WSW 11.9 km/h 28.5 km/h 82 % 0.0 mm
12:07 13.1 °C 10.1 °C 1024.9 hPa WSW 19.1 km/h 20.1 km/h 82 % 0.0 mm
12:12 13.1 °C 10.1 °C 1024.9 hPa WSW 16.3 km/h 20.1 km/h 82 % 0.0 mm
12:17 13.2 °C 10.2 °C 1024.9 hPa WSW 16.3 km/h 17.7 km/h 82 % 0.0 mm
12:22 13.2 °C 10.2 °C 1023.9 hPa WSW 20.1 km/h 23.0 km/h 82 % 0.0 mm
12:27 13.2 °C 10.2 °C 1023.9 hPa West 16.9 km/h 23.0 km/h 82 % 0.0 mm
12:32 13.2 °C 10.4 °C 1023.9 hPa WSW 12.6 km/h 20.9 km/h 83 % 0.0 mm
12:37 13.4 °C 10.6 °C 1024.9 hPa WSW 14.3 km/h 17.7 km/h 83 % 0.0 mm
12:42 13.7 °C 10.9 °C 1024.9 hPa WSW 13.0 km/h 16.6 km/h 83 % 0.0 mm
12:47 14.0 °C 11.2 °C 1024.9 hPa SW 9.7 km/h 16.6 km/h 83 % 0.0 mm
12:52 14.1 °C 11.1 °C 1024.9 hPa WSW 9.0 km/h 14.0 km/h 82 % 0.0 mm
12:57 14.7 °C 11.4 °C 1024.9 hPa SW 9.3 km/h 13.7 km/h 81 % 0.0 mm
13:02 15.7 °C 12.4 °C 1024.9 hPa WSW 9.7 km/h 12.6 km/h 81 % 0.0 mm
13:07 15.8 °C 11.9 °C 1024.9 hPa WSW 12.2 km/h 15.4 km/h 78 % 0.0 mm
13:12 15.7 °C 11.1 °C 1024.9 hPa WSW 12.2 km/h 22.4 km/h 74 % 0.0 mm
13:17 15.4 °C 10.6 °C 1024.9 hPa WSW 17.7 km/h 22.4 km/h 73 % 0.0 mm
13:22 15.3 °C 10.5 °C 1024.9 hPa WSW 12.6 km/h 22.4 km/h 73 % 0.0 mm
13:27 15.5 °C 10.7 °C 1024.9 hPa WSW 20.9 km/h 22.4 km/h 73 % 0.0 mm
13:32 15.7 °C 10.4 °C 1024.9 hPa SW 19.8 km/h 24.5 km/h 71 % 0.0 mm
13:38 16.0 °C 10.7 °C 1024.9 hPa WSW 15.8 km/h 24.5 km/h 71 % 0.0 mm
13:43 16.4 °C 10.9 °C 1024.9 hPa WSW 10.5 km/h 21.2 km/h 70 % 0.0 mm
13:48 16.8 °C 11.1 °C 1024.9 hPa West 12.2 km/h 17.7 km/h 69 % 0.0 mm
13:53 16.9 °C 10.8 °C 1024.9 hPa SW 17.7 km/h 19.8 km/h 67 % 0.0 mm
13:58 17.1 °C 10.7 °C 1024.9 hPa WSW 20.1 km/h 22.7 km/h 66 % 0.0 mm
14:03 17.2 °C 10.3 °C 1024.9 hPa West 20.1 km/h 22.7 km/h 64 % 0.0 mm
14:08 17.1 °C 9.7 °C 1023.9 hPa WSW 20.1 km/h 28.0 km/h 62 % 0.0 mm
14:13 16.9 °C 9.6 °C 1023.9 hPa West 20.6 km/h 28.0 km/h 62 % 0.0 mm
14:18 17.3 °C 10.0 °C 1023.9 hPa WSW 18.3 km/h 24.8 km/h 62 % 0.0 mm
14:23 16.9 °C 9.1 °C 1023.9 hPa West 16.9 km/h 24.8 km/h 60 % 0.0 mm
14:28 16.8 °C 8.9 °C 1023.9 hPa WSW 11.9 km/h 23.8 km/h 60 % 0.0 mm
14:33 16.7 °C 8.8 °C 1023.9 hPa West 13.0 km/h 23.0 km/h 60 % 0.0 mm
14:38 17.1 °C 9.4 °C 1023.9 hPa SW 17.2 km/h 21.2 km/h 61 % 0.0 mm
14:40 17.2 °C 9.3 °C 1023.9 hPa WSW 17.2 km/h 21.2 km/h 60 % 0.0 mm
14:45 17.1 °C 9.0 °C 1023.9 hPa WSW 20.9 km/h 20.9 km/h 59 % 0.0 mm
14:50 16.8 °C 8.3 °C 1023.9 hPa WSW 20.6 km/h 24.8 km/h 57 % 0.0 mm
14:55 16.8 °C 8.2 °C 1023.9 hPa WSW 12.6 km/h 24.8 km/h 57 % 0.0 mm
15:00 16.8 °C 8.6 °C 1023.9 hPa WSW 15.8 km/h 21.2 km/h 58 % 0.0 mm
15:05 16.9 °C 8.4 °C 1023.9 hPa West 21.6 km/h 21.6 km/h 57 % 0.0 mm
15:10 16.8 °C 8.0 °C 1023.9 hPa WSW 17.7 km/h 24.8 km/h 56 % 0.0 mm
15:15 16.7 °C 7.6 °C 1023.9 hPa WSW 17.2 km/h 24.8 km/h 55 % 0.0 mm
15:20 16.7 °C 7.6 °C 1023.9 hPa WSW 20.1 km/h 24.5 km/h 55 % 0.0 mm
15:25 16.8 °C 7.4 °C 1023.9 hPa WSW 17.2 km/h 27.4 km/h 54 % 0.0 mm
15:30 16.9 °C 8.1 °C 1023.9 hPa WSW 15.8 km/h 27.4 km/h 56 % 0.0 mm
15:35 16.9 °C 8.1 °C 1023.9 hPa WSW 15.8 km/h 19.8 km/h 56 % 0.0 mm
15:40 16.8 °C 7.5 °C 1023.9 hPa West 22.4 km/h 22.4 km/h 54 % 0.0 mm
15:45 16.9 °C 7.3 °C 1023.9 hPa West 20.6 km/h 28.0 km/h 53 % 0.0 mm
15:50 16.9 °C 7.3 °C 1023.9 hPa WSW 20.9 km/h 28.0 km/h 53 % 0.0 mm
15:55 17.2 °C 7.5 °C 1022.9 hPa WSW 16.3 km/h 26.2 km/h 53 % 0.0 mm
16:00 17.4 °C 8.1 °C 1022.9 hPa WSW 16.3 km/h 26.2 km/h 54 % 0.0 mm
16:05 17.4 °C 7.5 °C 1022.9 hPa SW 13.7 km/h 23.8 km/h 52 % 0.0 mm
16:10 17.4 °C 7.5 °C 1022.9 hPa WSW 20.6 km/h 24.5 km/h 52 % 0.0 mm
16:16 17.2 °C 7.0 °C 1022.9 hPa WSW 23.3 km/h 25.6 km/h 51 % 0.0 mm
16:20 17.2 °C 7.0 °C 1022.9 hPa WSW 21.2 km/h 25.6 km/h 51 % 0.0 mm
16:26 17.2 °C 7.0 °C 1022.9 hPa WSW 18.3 km/h 25.3 km/h 51 % 0.0 mm
16:31 17.3 °C 7.1 °C 1022.9 hPa WSW 16.3 km/h 21.2 km/h 51 % 0.0 mm
16:36 17.3 °C 7.1 °C 1022.9 hPa WSW 16.3 km/h 24.8 km/h 51 % 0.0 mm
16:41 17.2 °C 7.0 °C 1022.9 hPa WSW 25.3 km/h 25.6 km/h 51 % 0.0 mm
16:46 17.1 °C 6.6 °C 1022.9 hPa West 16.6 km/h 30.9 km/h 50 % 0.0 mm
16:51 17.1 °C 6.8 °C 1022.9 hPa WSW 13.0 km/h 30.9 km/h 51 % 0.0 mm
16:56 17.2 °C 7.0 °C 1022.9 hPa West 24.8 km/h 27.7 km/h 51 % 0.0 mm
17:01 17.4 °C 7.5 °C 1022.9 hPa WSW 15.8 km/h 27.7 km/h 52 % 0.0 mm
17:06 17.7 °C 7.4 °C 1022.9 hPa WSW 15.8 km/h 27.0 km/h 51 % 0.0 mm
17:11 17.9 °C 7.3 °C 1022.9 hPa WSW 14.0 km/h 24.8 km/h 50 % 0.0 mm
17:16 18.1 °C 7.4 °C 1022.9 hPa WSW 12.6 km/h 23.3 km/h 50 % 0.0 mm
17:21 17.8 °C 7.6 °C 1022.9 hPa WSW 15.1 km/h 22.7 km/h 51 % 0.0 mm
17:26 18.1 °C 7.8 °C 1022.9 hPa WSW 10.5 km/h 20.9 km/h 51 % 0.0 mm
17:31 18.1 °C 7.7 °C 1022.9 hPa SW 12.2 km/h 21.2 km/h 51 % 0.0 mm
17:36 18.1 °C 7.7 °C 1022.9 hPa WSW 13.0 km/h 21.2 km/h 51 % 0.0 mm
17:41 17.8 °C 7.6 °C 1022.9 hPa WSW 14.0 km/h 16.6 km/h 51 % 0.0 mm
17:46 17.7 °C 7.4 °C 1022.9 hPa WSW 11.9 km/h 21.2 km/h 51 % 0.0 mm
17:51 17.7 °C 7.7 °C 1022.9 hPa WSW 14.0 km/h 21.2 km/h 52 % 0.0 mm
17:56 17.7 °C 7.7 °C 1021.9 hPa WSW 14.8 km/h 16.9 km/h 52 % 0.0 mm
18:01 17.7 °C 7.7 °C 1021.9 hPa WSW 16.3 km/h 17.7 km/h 52 % 0.0 mm
18:06 17.6 °C 7.6 °C 1021.9 hPa WSW 13.7 km/h 17.7 km/h 52 % 0.0 mm
18:11 17.4 °C 7.8 °C 1021.9 hPa SW 16.3 km/h 17.7 km/h 53 % 0.0 mm
18:16 17.3 °C 7.7 °C 1021.9 hPa SW 9.0 km/h 18.3 km/h 53 % 0.0 mm
18:21 17.2 °C 7.6 °C 1021.9 hPa SSW 12.2 km/h 18.3 km/h 53 % 0.0 mm
18:26 17.2 °C 7.5 °C 1021.9 hPa WSW 16.3 km/h 17.2 km/h 53 % 0.0 mm
18:31 17.2 °C 7.8 °C 1021.9 hPa WSW 11.9 km/h 17.2 km/h 54 % 0.0 mm
18:36 17.2 °C 7.8 °C 1021.9 hPa West 16.6 km/h 16.6 km/h 54 % 0.0 mm
18:41 17.3 °C 7.9 °C 1022.9 hPa WSW 9.0 km/h 16.6 km/h 54 % 0.0 mm
18:46 17.2 °C 7.8 °C 1022.9 hPa West 7.9 km/h 15.4 km/h 54 % 0.0 mm
18:51 17.2 °C 7.8 °C 1022.9 hPa West 10.1 km/h 11.9 km/h 54 % 0.0 mm
18:56 17.2 °C 7.8 °C 1021.9 hPa WSW 5.5 km/h 11.9 km/h 54 % 0.0 mm
19:01 17.2 °C 7.8 °C 1021.9 hPa WSW 13.0 km/h 13.0 km/h 54 % 0.0 mm
19:06 17.1 °C 7.4 °C 1021.9 hPa West 11.9 km/h 13.0 km/h 53 % 0.0 mm
19:11 16.9 °C 7.3 °C 1022.9 hPa Calm   11.9 km/h 53 % 0.0 mm
19:16 16.8 °C 7.4 °C 1022.9 hPa WSW 7.6 km/h 7.9 km/h 54 % 0.0 mm
19:21 16.6 °C 7.2 °C 1022.9 hPa WSW 5.8 km/h 7.9 km/h 54 % 0.0 mm
19:26 16.4 °C 7.3 °C 1022.9 hPa Calm   7.6 km/h 55 % 0.0 mm
19:31 16.3 °C 7.4 °C 1022.9 hPa Calm   6.1 km/h 56 % 0.0 mm
19:36 16.2 °C 7.6 °C 1022.9 hPa Calm   6.1 km/h 57 % 0.0 mm
19:41 16.0 °C 7.4 °C 1022.9 hPa Calm     57 % 0.0 mm
19:46 16.0 °C 7.7 °C 1022.9 hPa Calm     58 % 0.0 mm
19:52 15.8 °C 7.8 °C 1022.9 hPa Calm     59 % 0.0 mm
19:57 15.7 °C 7.7 °C 1023.9 hPa WSW 9.0 km/h 9.0 km/h 59 % 0.0 mm
20:02 15.7 °C 7.9 °C 1023.9 hPa West 16.3 km/h 22.4 km/h 60 % 0.0 mm
20:07 16.0 °C 7.7 °C 1023.9 hPa WSW 17.2 km/h 24.5 km/h 58 % 0.0 mm
20:12 16.2 °C 7.6 °C 1023.9 hPa West 12.6 km/h 24.5 km/h 57 % 0.0 mm
20:17 16.2 °C 7.9 °C 1023.9 hPa WSW 12.6 km/h 20.1 km/h 58 % 0.0 mm
20:22 16.0 °C 7.7 °C 1023.9 hPa West 17.2 km/h 19.8 km/h 58 % 0.0 mm
20:27 16.0 °C 7.9 °C 1023.9 hPa WSW 7.2 km/h 19.8 km/h 59 % 0.0 mm
20:32 15.9 °C 7.9 °C 1023.9 hPa WSW 6.1 km/h 17.7 km/h 59 % 0.0 mm
20:37 15.8 °C 7.8 °C 1023.9 hPa West 6.1 km/h 13.0 km/h 59 % 0.0 mm
20:42 15.6 °C 7.8 °C 1022.9 hPa Calm   6.9 km/h 60 % 0.0 mm
20:47 15.3 °C 7.6 °C 1022.9 hPa Calm   6.1 km/h 60 % 0.0 mm
20:52 15.1 °C 7.6 °C 1022.9 hPa Calm     61 % 0.0 mm
20:57 15.0 °C 7.6 °C 1023.9 hPa Calm     61 % 0.0 mm
21:02 14.8 °C 7.6 °C 1023.9 hPa Calm     62 % 0.0 mm
21:07 14.7 °C 7.5 °C 1023.9 hPa Calm     62 % 0.0 mm
21:12 14.5 °C 7.6 °C 1023.9 hPa Calm     63 % 0.0 mm
21:17 14.3 °C 7.6 °C 1023.9 hPa Calm     64 % 0.0 mm
21:22 14.1 °C 7.4 °C 1023.9 hPa Calm     64 % 0.0 mm
21:27 13.9 °C 7.4 °C 1023.9 hPa Calm     65 % 0.0 mm
21:32 13.6 °C 7.4 °C 1023.9 hPa Calm     66 % 0.0 mm
21:37 13.5 °C 7.3 °C 1023.9 hPa Calm     66 % 0.0 mm
21:42 13.4 °C 7.4 °C 1023.9 hPa Calm     67 % 0.0 mm
21:47 13.4 °C 7.6 °C 1023.9 hPa Calm     68 % 0.0 mm
21:49 13.4 °C 7.8 °C 1023.9 hPa Calm     69 % 0.0 mm
21:54 13.3 °C 7.8 °C 1023.9 hPa Calm     69 % 0.0 mm
21:59 13.2 °C 7.7 °C 1023.9 hPa Calm     69 % 0.0 mm
22:04 13.1 °C 7.8 °C 1023.9 hPa Calm     70 % 0.0 mm
22:09 13.1 °C 7.9 °C 1023.9 hPa Calm     71 % 0.0 mm
22:14 13.1 °C 7.9 °C 1023.9 hPa Calm     71 % 0.0 mm
22:19 12.8 °C 7.9 °C 1023.9 hPa Calm     72 % 0.0 mm
22:24 12.7 °C 7.8 °C 1023.9 hPa Calm     72 % 0.0 mm
22:29 12.7 °C 7.7 °C 1023.9 hPa Calm     72 % 0.0 mm
22:34 12.3 °C 7.7 °C 1023.9 hPa Calm     73 % 0.0 mm
22:39 12.2 °C 7.6 °C 1023.9 hPa Calm     73 % 0.0 mm
22:44 12.1 °C 7.6 °C 1023.9 hPa Calm     74 % 0.0 mm
22:49 12.1 °C 7.6 °C 1023.9 hPa Calm     74 % 0.0 mm
22:54 11.9 °C 7.7 °C 1023.9 hPa Calm     75 % 0.0 mm
22:59 11.8 °C 7.6 °C 1023.9 hPa Calm     75 % 0.0 mm
23:00 11.8 °C 7.6 °C 1023.9 hPa Calm     75 % 0.0 mm
23:05 11.8 °C 7.4 °C 1023.9 hPa Calm     75 % 0.0 mm
23:10 11.7 °C 7.6 °C 1023.9 hPa Calm     76 % 0.0 mm
23:15 11.8 °C 7.7 °C 1023.9 hPa Calm     76 % 0.0 mm
23:20 11.8 °C 7.8 °C 1023.9 hPa Calm   1.8 km/h 76 % 0.0 mm
23:25 12.1 °C 8.2 °C 1023.9 hPa Calm   1.8 km/h 77 % 0.0 mm
23:30 12.2 °C 8.2 °C 1023.9 hPa Calm   1.4 km/h 77 % 0.0 mm
23:35 12.2 °C 8.3 °C 1023.9 hPa Calm   3.2 km/h 77 % 0.0 mm
23:40 12.4 °C 8.3 °C 1023.9 hPa Calm   3.2 km/h 76 % 0.0 mm
23:45 12.7 °C 8.5 °C 1023.9 hPa Calm     76 % 0.0 mm
23:50 12.8 °C 8.7 °C 1023.9 hPa Calm     76 % 0.0 mm
23:55 12.9 °C 8.6 °C 1023.9 hPa Calm   4.7 km/h 75 % 0.0 mm
Le Gheer Warneton
Courtoisie de Weather Underground - 2.25 mb

Mise a jour : 18/12/2017 21:33:12
Généré par Cumulus 1.9.4 (1099)